sensor_id;sensor_type;location;lat;lon;timestamp;P1;durP1;ratioP1;P2;durP2;ratioP2
9597;SDS011;4837;50.890;4.724;2022-12-29T00:01:54;2.38;;;1.38;;
9597;SDS011;4837;50.890;4.724;2022-12-29T00:04:21;1.40;;;1.30;;
9597;SDS011;4837;50.890;4.724;2022-12-29T00:06:47;1.73;;;1.33;;
9597;SDS011;4837;50.890;4.724;2022-12-29T00:09:13;1.58;;;1.30;;
9597;SDS011;4837;50.890;4.724;2022-12-29T00:11:40;1.73;;;1.27;;
9597;SDS011;4837;50.890;4.724;2022-12-29T00:14:08;1.70;;;1.20;;
9597;SDS011;4837;50.890;4.724;2022-12-29T00:16:53;3.50;;;1.40;;
9597;SDS011;4837;50.890;4.724;2022-12-29T00:19:19;2.10;;;1.30;;
9597;SDS011;4837;50.890;4.724;2022-12-29T00:22:04;1.10;;;1.00;;
9597;SDS011;4837;50.890;4.724;2022-12-29T00:24:48;1.77;;;1.13;;
9597;SDS011;4837;50.890;4.724;2022-12-29T00:27:26;2.00;;;1.53;;
9597;SDS011;4837;50.890;4.724;2022-12-29T00:30:12;1.97;;;1.00;;
9597;SDS011;4837;50.890;4.724;2022-12-29T00:32:57;2.17;;;0.97;;
9597;SDS011;4837;50.890;4.724;2022-12-29T00:35:43;1.73;;;1.10;;
9597;SDS011;4837;50.890;4.724;2022-12-29T00:38:10;2.07;;;1.10;;
9597;SDS011;4837;50.890;4.724;2022-12-29T00:40:55;3.80;;;1.00;;
9597;SDS011;4837;50.890;4.724;2022-12-29T00:43:39;1.47;;;0.93;;
9597;SDS011;4837;50.890;4.724;2022-12-29T00:46:24;3.83;;;1.48;;
9597;SDS011;4837;50.890;4.724;2022-12-29T00:48:50;1.83;;;0.90;;
9597;SDS011;4837;50.890;4.724;2022-12-29T00:51:35;2.35;;;1.10;;
9597;SDS011;4837;50.890;4.724;2022-12-29T00:54:01;1.40;;;0.85;;
9597;SDS011;4837;50.890;4.724;2022-12-29T00:56:27;1.73;;;0.90;;
9597;SDS011;4837;50.890;4.724;2022-12-29T00:58:53;2.05;;;0.90;;
9597;SDS011;4837;50.890;4.724;2022-12-29T01:01:19;3.22;;;0.98;;
9597;SDS011;4837;50.890;4.724;2022-12-29T01:03:45;5.18;;;1.20;;
9597;SDS011;4837;50.890;4.724;2022-12-29T01:06:11;3.13;;;1.40;;
9597;SDS011;4837;50.890;4.724;2022-12-29T01:08:38;1.70;;;1.00;;
9597;SDS011;4837;50.890;4.724;2022-12-29T01:11:05;2.80;;;1.10;;
9597;SDS011;4837;50.890;4.724;2022-12-29T01:13:32;3.67;;;1.20;;
9597;SDS011;4837;50.890;4.724;2022-12-29T01:15:58;4.47;;;1.20;;
9597;SDS011;4837;50.890;4.724;2022-12-29T01:18:24;4.13;;;1.33;;
9597;SDS011;4837;50.890;4.724;2022-12-29T01:20:51;1.67;;;1.17;;
9597;SDS011;4837;50.890;4.724;2022-12-29T01:23:23;2.87;;;1.10;;
9597;SDS011;4837;50.890;4.724;2022-12-29T01:25:49;3.25;;;1.30;;
9597;SDS011;4837;50.890;4.724;2022-12-29T01:28:15;2.35;;;1.10;;
9597;SDS011;4837;50.890;4.724;2022-12-29T01:30:41;3.73;;;1.20;;
9597;SDS011;4837;50.890;4.724;2022-12-29T01:33:08;2.88;;;1.20;;
9597;SDS011;4837;50.890;4.724;2022-12-29T01:35:34;3.10;;;1.35;;
9597;SDS011;4837;50.890;4.724;2022-12-29T01:38:00;2.88;;;1.38;;
9597;SDS011;4837;50.890;4.724;2022-12-29T01:40:26;3.17;;;1.50;;
9597;SDS011;4837;50.890;4.724;2022-12-29T01:42:56;3.33;;;1.52;;
9597;SDS011;4837;50.890;4.724;2022-12-29T01:45:22;2.27;;;1.13;;
9597;SDS011;4837;50.890;4.724;2022-12-29T01:47:50;3.83;;;1.27;;
9597;SDS011;4837;50.890;4.724;2022-12-29T01:50:18;4.47;;;1.40;;
9597;SDS011;4837;50.890;4.724;2022-12-29T01:53:07;4.07;;;1.60;;
9597;SDS011;4837;50.890;4.724;2022-12-29T01:55:33;3.27;;;1.50;;
9597;SDS011;4837;50.890;4.724;2022-12-29T01:58:00;4.07;;;1.67;;
9597;SDS011;4837;50.890;4.724;2022-12-29T02:00:28;5.87;;;1.80;;
9597;SDS011;4837;50.890;4.724;2022-12-29T02:02:55;2.58;;;1.40;;
9597;SDS011;4837;50.890;4.724;2022-12-29T02:05:25;2.97;;;1.53;;
9597;SDS011;4837;50.890;4.724;2022-12-29T02:07:53;4.65;;;1.40;;
9597;SDS011;4837;50.890;4.724;2022-12-29T02:10:23;2.20;;;1.35;;
9597;SDS011;4837;50.890;4.724;2022-12-29T02:12:50;3.77;;;1.50;;
9597;SDS011;4837;50.890;4.724;2022-12-29T02:15:17;5.27;;;1.60;;
9597;SDS011;4837;50.890;4.724;2022-12-29T02:17:52;4.80;;;1.38;;
9597;SDS011;4837;50.890;4.724;2022-12-29T02:20:42;5.20;;;1.57;;
9597;SDS011;4837;50.890;4.724;2022-12-29T02:33:21;1.17;;;0.70;;
9597;SDS011;4837;50.890;4.724;2022-12-29T02:36:10;1.83;;;1.00;;
9597;SDS011;4837;50.890;4.724;2022-12-29T02:38:47;2.93;;;1.10;;
9597;SDS011;4837;50.890;4.724;2022-12-29T02:41:22;2.67;;;1.00;;
9597;SDS011;4837;50.890;4.724;2022-12-29T02:43:59;2.07;;;0.87;;
9597;SDS011;4837;50.890;4.724;2022-12-29T02:46:37;1.60;;;0.97;;
9597;SDS011;4837;50.890;4.724;2022-12-29T02:49:09;2.53;;;0.80;;
9597;SDS011;4837;50.890;4.724;2022-12-29T02:51:38;3.87;;;0.90;;
9597;SDS011;4837;50.890;4.724;2022-12-29T02:54:05;3.47;;;1.20;;
9597;SDS011;4837;50.890;4.724;2022-12-29T02:56:50;2.20;;;0.70;;
9597;SDS011;4837;50.890;4.724;2022-12-29T02:59:16;1.00;;;0.70;;
9597;SDS011;4837;50.890;4.724;2022-12-29T03:02:03;1.63;;;0.80;;
9597;SDS011;4837;50.890;4.724;2022-12-29T03:07:20;2.13;;;0.80;;
9597;SDS011;4837;50.890;4.724;2022-12-29T03:15:34;1.23;;;0.60;;
9597;SDS011;4837;50.890;4.724;2022-12-29T03:18:21;2.77;;;0.60;;
9597;SDS011;4837;50.890;4.724;2022-12-29T03:20:56;1.97;;;0.57;;
9597;SDS011;4837;50.890;4.724;2022-12-29T03:23:25;1.80;;;0.73;;
9597;SDS011;4837;50.890;4.724;2022-12-29T03:25:53;5.30;;;0.93;;
9597;SDS011;4837;50.890;4.724;2022-12-29T03:28:25;3.40;;;0.87;;
9597;SDS011;4837;50.890;4.724;2022-12-29T03:30:53;2.90;;;0.70;;
9597;SDS011;4837;50.890;4.724;2022-12-29T03:33:24;2.27;;;0.80;;
9597;SDS011;4837;50.890;4.724;2022-12-29T03:35:51;1.90;;;0.80;;
9597;SDS011;4837;50.890;4.724;2022-12-29T03:38:22;3.58;;;0.80;;
9597;SDS011;4837;50.890;4.724;2022-12-29T03:40:50;0.80;;;0.70;;
9597;SDS011;4837;50.890;4.724;2022-12-29T03:43:17;1.63;;;0.63;;
9597;SDS011;4837;50.890;4.724;2022-12-29T03:45:44;2.60;;;1.00;;
9597;SDS011;4837;50.890;4.724;2022-12-29T03:48:10;2.30;;;0.60;;
9597;SDS011;4837;50.890;4.724;2022-12-29T03:50:36;1.75;;;0.75;;
9597;SDS011;4837;50.890;4.724;2022-12-29T03:53:02;1.10;;;0.80;;
9597;SDS011;4837;50.890;4.724;2022-12-29T03:55:29;2.27;;;0.83;;
9597;SDS011;4837;50.890;4.724;2022-12-29T03:57:55;3.40;;;1.20;;
9597;SDS011;4837;50.890;4.724;2022-12-29T04:00:21;5.45;;;1.10;;
9597;SDS011;4837;50.890;4.724;2022-12-29T04:02:47;3.50;;;1.23;;
9597;SDS011;4837;50.890;4.724;2022-12-29T04:05:13;3.13;;;1.20;;
9597;SDS011;4837;50.890;4.724;2022-12-29T04:07:39;5.63;;;1.20;;
9597;SDS011;4837;50.890;4.724;2022-12-29T04:10:05;4.67;;;1.10;;
9597;SDS011;4837;50.890;4.724;2022-12-29T04:12:31;4.23;;;1.10;;
9597;SDS011;4837;50.890;4.724;2022-12-29T04:14:58;3.07;;;1.17;;
9597;SDS011;4837;50.890;4.724;2022-12-29T04:17:24;4.63;;;1.10;;
9597;SDS011;4837;50.890;4.724;2022-12-29T04:19:50;6.27;;;0.93;;
9597;SDS011;4837;50.890;4.724;2022-12-29T04:22:16;3.83;;;1.23;;
9597;SDS011;4837;50.890;4.724;2022-12-29T04:24:42;4.00;;;1.30;;
9597;SDS011;4837;50.890;4.724;2022-12-29T04:27:08;4.23;;;1.40;;
9597;SDS011;4837;50.890;4.724;2022-12-29T04:29:34;5.20;;;1.27;;
9597;SDS011;4837;50.890;4.724;2022-12-29T04:32:00;4.00;;;1.10;;
9597;SDS011;4837;50.890;4.724;2022-12-29T04:34:26;4.73;;;1.00;;
9597;SDS011;4837;50.890;4.724;2022-12-29T04:36:53;2.50;;;0.87;;
9597;SDS011;4837;50.890;4.724;2022-12-29T04:39:19;3.10;;;0.93;;
9597;SDS011;4837;50.890;4.724;2022-12-29T04:41:45;1.40;;;0.80;;
9597;SDS011;4837;50.890;4.724;2022-12-29T04:44:11;3.00;;;1.13;;
9597;SDS011;4837;50.890;4.724;2022-12-29T04:46:37;2.37;;;1.00;;
9597;SDS011;4837;50.890;4.724;2022-12-29T04:49:03;2.90;;;1.00;;
9597;SDS011;4837;50.890;4.724;2022-12-29T04:51:33;3.17;;;0.93;;
9597;SDS011;4837;50.890;4.724;2022-12-29T04:54:00;3.00;;;1.00;;
9597;SDS011;4837;50.890;4.724;2022-12-29T04:56:26;4.43;;;1.00;;
9597;SDS011;4837;50.890;4.724;2022-12-29T04:58:52;3.97;;;1.37;;
9597;SDS011;4837;50.890;4.724;2022-12-29T05:01:18;3.37;;;1.00;;
9597;SDS011;4837;50.890;4.724;2022-12-29T05:03:44;5.03;;;1.03;;
9597;SDS011;4837;50.890;4.724;2022-12-29T05:06:10;3.90;;;1.20;;
9597;SDS011;4837;50.890;4.724;2022-12-29T05:08:36;5.70;;;1.20;;
9597;SDS011;4837;50.890;4.724;2022-12-29T05:11:02;4.37;;;1.37;;
9597;SDS011;4837;50.890;4.724;2022-12-29T05:13:28;4.40;;;1.10;;
9597;SDS011;4837;50.890;4.724;2022-12-29T05:15:55;6.03;;;1.20;;
9597;SDS011;4837;50.890;4.724;2022-12-29T05:18:21;5.80;;;1.17;;
9597;SDS011;4837;50.890;4.724;2022-12-29T05:20:47;5.53;;;1.27;;
9597;SDS011;4837;50.890;4.724;2022-12-29T05:23:13;2.93;;;1.03;;
9597;SDS011;4837;50.890;4.724;2022-12-29T05:25:39;2.77;;;1.20;;
9597;SDS011;4837;50.890;4.724;2022-12-29T05:28:05;5.22;;;1.30;;
9597;SDS011;4837;50.890;4.724;2022-12-29T05:30:31;3.47;;;1.20;;
9597;SDS011;4837;50.890;4.724;2022-12-29T05:32:57;4.97;;;1.33;;
9597;SDS011;4837;50.890;4.724;2022-12-29T05:35:24;7.67;;;1.37;;
9597;SDS011;4837;50.890;4.724;2022-12-29T05:37:50;5.30;;;1.17;;
9597;SDS011;4837;50.890;4.724;2022-12-29T05:40:16;3.83;;;1.17;;
9597;SDS011;4837;50.890;4.724;2022-12-29T05:42:42;5.10;;;1.57;;
9597;SDS011;4837;50.890;4.724;2022-12-29T05:45:08;6.47;;;1.40;;
9597;SDS011;4837;50.890;4.724;2022-12-29T05:47:34;4.60;;;1.23;;
9597;SDS011;4837;50.890;4.724;2022-12-29T05:50:01;6.60;;;1.37;;
9597;SDS011;4837;50.890;4.724;2022-12-29T05:52:27;6.17;;;1.30;;
9597;SDS011;4837;50.890;4.724;2022-12-29T05:54:53;6.97;;;1.40;;
9597;SDS011;4837;50.890;4.724;2022-12-29T05:57:19;4.73;;;1.30;;
9597;SDS011;4837;50.890;4.724;2022-12-29T05:59:45;6.23;;;1.53;;
9597;SDS011;4837;50.890;4.724;2022-12-29T06:02:11;5.27;;;1.60;;
9597;SDS011;4837;50.890;4.724;2022-12-29T06:04:37;4.57;;;1.50;;
9597;SDS011;4837;50.890;4.724;2022-12-29T06:07:04;7.90;;;1.70;;
9597;SDS011;4837;50.890;4.724;2022-12-29T06:09:30;5.63;;;1.37;;
9597;SDS011;4837;50.890;4.724;2022-12-29T06:11:56;5.93;;;1.30;;
9597;SDS011;4837;50.890;4.724;2022-12-29T06:14:22;6.37;;;1.77;;
9597;SDS011;4837;50.890;4.724;2022-12-29T06:16:48;5.67;;;1.23;;
9597;SDS011;4837;50.890;4.724;2022-12-29T06:19:14;5.83;;;1.43;;
9597;SDS011;4837;50.890;4.724;2022-12-29T06:21:40;7.40;;;1.63;;
9597;SDS011;4837;50.890;4.724;2022-12-29T06:24:07;7.77;;;1.63;;
9597;SDS011;4837;50.890;4.724;2022-12-29T06:26:33;5.73;;;1.80;;
9597;SDS011;4837;50.890;4.724;2022-12-29T06:28:59;4.20;;;1.40;;
9597;SDS011;4837;50.890;4.724;2022-12-29T06:31:26;4.67;;;1.30;;
9597;SDS011;4837;50.890;4.724;2022-12-29T06:33:52;6.77;;;1.70;;
9597;SDS011;4837;50.890;4.724;2022-12-29T06:36:18;4.60;;;1.50;;
9597;SDS011;4837;50.890;4.724;2022-12-29T06:38:45;8.70;;;2.80;;
9597;SDS011;4837;50.890;4.724;2022-12-29T06:41:11;8.20;;;2.10;;
9597;SDS011;4837;50.890;4.724;2022-12-29T06:43:37;7.67;;;2.47;;
9597;SDS011;4837;50.890;4.724;2022-12-29T06:46:03;8.80;;;1.97;;
9597;SDS011;4837;50.890;4.724;2022-12-29T06:48:30;8.93;;;2.20;;
9597;SDS011;4837;50.890;4.724;2022-12-29T06:50:56;5.87;;;1.40;;
9597;SDS011;4837;50.890;4.724;2022-12-29T06:53:22;6.57;;;1.37;;
9597;SDS011;4837;50.890;4.724;2022-12-29T06:55:48;7.40;;;1.83;;
9597;SDS011;4837;50.890;4.724;2022-12-29T06:58:15;7.10;;;1.70;;
9597;SDS011;4837;50.890;4.724;2022-12-29T07:00:41;5.40;;;1.63;;
9597;SDS011;4837;50.890;4.724;2022-12-29T07:03:07;4.60;;;1.77;;
9597;SDS011;4837;50.890;4.724;2022-12-29T07:05:33;10.40;;;1.70;;
9597;SDS011;4837;50.890;4.724;2022-12-29T07:07:59;6.23;;;1.47;;
9597;SDS011;4837;50.890;4.724;2022-12-29T07:10:26;5.90;;;1.50;;
9597;SDS011;4837;50.890;4.724;2022-12-29T07:12:52;5.20;;;1.77;;
9597;SDS011;4837;50.890;4.724;2022-12-29T07:15:18;5.85;;;1.42;;
9597;SDS011;4837;50.890;4.724;2022-12-29T07:17:44;5.47;;;1.60;;
9597;SDS011;4837;50.890;4.724;2022-12-29T07:20:10;6.97;;;1.73;;
9597;SDS011;4837;50.890;4.724;2022-12-29T07:22:37;8.65;;;1.80;;
9597;SDS011;4837;50.890;4.724;2022-12-29T07:25:03;5.60;;;1.70;;
9597;SDS011;4837;50.890;4.724;2022-12-29T07:27:29;6.47;;;1.40;;
9597;SDS011;4837;50.890;4.724;2022-12-29T07:29:56;5.83;;;1.90;;
9597;SDS011;4837;50.890;4.724;2022-12-29T07:32:22;7.60;;;1.83;;
9597;SDS011;4837;50.890;4.724;2022-12-29T07:34:48;5.80;;;1.73;;
9597;SDS011;4837;50.890;4.724;2022-12-29T07:37:14;5.37;;;1.50;;
9597;SDS011;4837;50.890;4.724;2022-12-29T07:39:41;8.17;;;2.20;;
9597;SDS011;4837;50.890;4.724;2022-12-29T07:42:07;9.40;;;2.13;;
9597;SDS011;4837;50.890;4.724;2022-12-29T07:44:33;4.93;;;1.70;;
9597;SDS011;4837;50.890;4.724;2022-12-29T07:47:01;9.00;;;1.70;;
9597;SDS011;4837;50.890;4.724;2022-12-29T07:49:27;7.40;;;1.93;;
9597;SDS011;4837;50.890;4.724;2022-12-29T07:51:53;4.67;;;1.43;;
9597;SDS011;4837;50.890;4.724;2022-12-29T07:54:19;6.37;;;1.90;;
9597;SDS011;4837;50.890;4.724;2022-12-29T07:56:47;6.53;;;1.40;;
9597;SDS011;4837;50.890;4.724;2022-12-29T07:59:13;7.37;;;1.43;;
9597;SDS011;4837;50.890;4.724;2022-12-29T08:01:39;4.93;;;1.37;;
9597;SDS011;4837;50.890;4.724;2022-12-29T08:04:06;8.33;;;2.17;;
9597;SDS011;4837;50.890;4.724;2022-12-29T08:06:32;5.18;;;1.75;;
9597;SDS011;4837;50.890;4.724;2022-12-29T08:08:58;3.70;;;1.40;;
9597;SDS011;4837;50.890;4.724;2022-12-29T08:11:26;6.97;;;1.90;;
9597;SDS011;4837;50.890;4.724;2022-12-29T08:13:52;7.43;;;2.10;;
9597;SDS011;4837;50.890;4.724;2022-12-29T08:16:18;6.93;;;1.70;;
9597;SDS011;4837;50.890;4.724;2022-12-29T08:18:44;7.22;;;2.10;;
9597;SDS011;4837;50.890;4.724;2022-12-29T08:21:10;5.47;;;1.80;;
9597;SDS011;4837;50.890;4.724;2022-12-29T08:23:36;9.70;;;2.33;;
9597;SDS011;4837;50.890;4.724;2022-12-29T08:26:03;9.87;;;2.07;;
9597;SDS011;4837;50.890;4.724;2022-12-29T08:28:30;8.98;;;2.13;;
9597;SDS011;4837;50.890;4.724;2022-12-29T08:30:57;4.87;;;1.30;;
9597;SDS011;4837;50.890;4.724;2022-12-29T08:33:23;8.33;;;1.53;;
9597;SDS011;4837;50.890;4.724;2022-12-29T08:35:50;8.20;;;2.03;;
9597;SDS011;4837;50.890;4.724;2022-12-29T08:38:16;7.50;;;1.70;;
9597;SDS011;4837;50.890;4.724;2022-12-29T08:40:43;8.93;;;2.10;;
9597;SDS011;4837;50.890;4.724;2022-12-29T08:43:09;7.00;;;1.63;;
9597;SDS011;4837;50.890;4.724;2022-12-29T08:45:35;5.30;;;1.50;;
9597;SDS011;4837;50.890;4.724;2022-12-29T08:48:01;5.43;;;1.97;;
9597;SDS011;4837;50.890;4.724;2022-12-29T08:50:27;8.27;;;1.67;;
9597;SDS011;4837;50.890;4.724;2022-12-29T08:52:54;5.57;;;1.63;;
9597;SDS011;4837;50.890;4.724;2022-12-29T08:55:20;7.23;;;2.00;;
9597;SDS011;4837;50.890;4.724;2022-12-29T08:57:46;5.17;;;1.23;;
9597;SDS011;4837;50.890;4.724;2022-12-29T09:00:12;7.87;;;2.03;;
9597;SDS011;4837;50.890;4.724;2022-12-29T09:02:40;7.53;;;2.07;;
9597;SDS011;4837;50.890;4.724;2022-12-29T09:05:06;11.77;;;1.90;;
9597;SDS011;4837;50.890;4.724;2022-12-29T09:07:32;7.57;;;1.90;;
9597;SDS011;4837;50.890;4.724;2022-12-29T09:09:58;6.80;;;1.57;;
9597;SDS011;4837;50.890;4.724;2022-12-29T09:12:24;9.97;;;2.07;;
9597;SDS011;4837;50.890;4.724;2022-12-29T09:14:51;8.80;;;2.00;;
9597;SDS011;4837;50.890;4.724;2022-12-29T09:17:17;6.17;;;1.77;;
9597;SDS011;4837;50.890;4.724;2022-12-29T09:20:02;9.23;;;1.70;;
9597;SDS011;4837;50.890;4.724;2022-12-29T09:22:28;9.37;;;1.90;;
9597;SDS011;4837;50.890;4.724;2022-12-29T09:24:54;11.17;;;2.10;;
9597;SDS011;4837;50.890;4.724;2022-12-29T09:27:20;6.97;;;1.87;;
9597;SDS011;4837;50.890;4.724;2022-12-29T09:29:47;6.80;;;1.70;;
9597;SDS011;4837;50.890;4.724;2022-12-29T09:32:13;10.57;;;1.90;;
9597;SDS011;4837;50.890;4.724;2022-12-29T09:34:39;9.30;;;2.20;;
9597;SDS011;4837;50.890;4.724;2022-12-29T09:37:05;9.30;;;2.65;;
9597;SDS011;4837;50.890;4.724;2022-12-29T09:39:31;9.13;;;2.30;;
9597;SDS011;4837;50.890;4.724;2022-12-29T09:42:08;4.93;;;1.60;;
9597;SDS011;4837;50.890;4.724;2022-12-29T09:47:23;8.13;;;2.00;;
9597;SDS011;4837;50.890;4.724;2022-12-29T09:49:58;6.77;;;1.63;;
9597;SDS011;4837;50.890;4.724;2022-12-29T09:52:29;7.63;;;1.98;;
9597;SDS011;4837;50.890;4.724;2022-12-29T09:55:10;10.32;;;2.60;;
9597;SDS011;4837;50.890;4.724;2022-12-29T09:57:42;9.13;;;2.47;;
9597;SDS011;4837;50.890;4.724;2022-12-29T10:00:14;7.47;;;1.93;;
9597;SDS011;4837;50.890;4.724;2022-12-29T10:02:52;7.03;;;2.10;;
9597;SDS011;4837;50.890;4.724;2022-12-29T10:08:00;10.10;;;1.93;;
9597;SDS011;4837;50.890;4.724;2022-12-29T10:10:33;10.85;;;2.03;;
9597;SDS011;4837;50.890;4.724;2022-12-29T10:13:03;8.82;;;2.15;;
9597;SDS011;4837;50.890;4.724;2022-12-29T10:15:46;9.70;;;2.15;;
9597;SDS011;4837;50.890;4.724;2022-12-29T10:18:20;9.67;;;2.37;;
9597;SDS011;4837;50.890;4.724;2022-12-29T10:21:02;6.10;;;1.90;;
9597;SDS011;4837;50.890;4.724;2022-12-29T10:23:38;8.43;;;2.10;;
9597;SDS011;4837;50.890;4.724;2022-12-29T10:26:11;11.20;;;2.38;;
9597;SDS011;4837;50.890;4.724;2022-12-29T10:31:07;6.63;;;2.00;;
9597;SDS011;4837;50.890;4.724;2022-12-29T10:33:36;6.60;;;2.10;;
9597;SDS011;4837;50.890;4.724;2022-12-29T10:36:12;6.80;;;2.07;;
9597;SDS011;4837;50.890;4.724;2022-12-29T10:38:51;6.03;;;1.93;;
9597;SDS011;4837;50.890;4.724;2022-12-29T10:41:26;7.30;;;2.07;;
9597;SDS011;4837;50.890;4.724;2022-12-29T10:43:54;9.40;;;1.80;;
9597;SDS011;4837;50.890;4.724;2022-12-29T10:46:30;11.50;;;3.80;;
9597;SDS011;4837;50.890;4.724;2022-12-29T10:48:58;8.03;;;2.00;;
9597;SDS011;4837;50.890;4.724;2022-12-29T10:51:29;7.33;;;2.33;;
9597;SDS011;4837;50.890;4.724;2022-12-29T10:56:32;9.87;;;2.33;;
9597;SDS011;4837;50.890;4.724;2022-12-29T10:59:01;6.63;;;2.03;;
9597;SDS011;4837;50.890;4.724;2022-12-29T11:01:31;9.43;;;2.17;;
9597;SDS011;4837;50.890;4.724;2022-12-29T11:04:00;10.07;;;2.20;;
9597;SDS011;4837;50.890;4.724;2022-12-29T11:06:28;10.67;;;4.70;;
9597;SDS011;4837;50.890;4.724;2022-12-29T11:09:12;9.05;;;2.30;;
9597;SDS011;4837;50.890;4.724;2022-12-29T11:11:40;7.15;;;1.90;;
9597;SDS011;4837;50.890;4.724;2022-12-29T11:14:14;11.47;;;2.37;;
9597;SDS011;4837;50.890;4.724;2022-12-29T11:16:41;8.60;;;2.00;;
9597;SDS011;4837;50.890;4.724;2022-12-29T11:19:19;12.05;;;2.03;;
9597;SDS011;4837;50.890;4.724;2022-12-29T11:21:46;5.07;;;1.67;;
9597;SDS011;4837;50.890;4.724;2022-12-29T11:24:19;7.67;;;2.10;;
9597;SDS011;4837;50.890;4.724;2022-12-29T11:26:46;7.73;;;2.10;;
9597;SDS011;4837;50.890;4.724;2022-12-29T11:31:42;8.38;;;2.08;;
9597;SDS011;4837;50.890;4.724;2022-12-29T11:34:11;6.65;;;1.70;;
9597;SDS011;4837;50.890;4.724;2022-12-29T11:36:42;11.18;;;2.15;;
9597;SDS011;4837;50.890;4.724;2022-12-29T11:39:16;7.50;;;2.03;;
9597;SDS011;4837;50.890;4.724;2022-12-29T11:41:45;15.38;;;2.92;;
9597;SDS011;4837;50.890;4.724;2022-12-29T11:44:16;7.70;;;2.13;;
9597;SDS011;4837;50.890;4.724;2022-12-29T11:46:45;8.98;;;1.95;;
9597;SDS011;4837;50.890;4.724;2022-12-29T11:49:13;7.75;;;2.10;;
9597;SDS011;4837;50.890;4.724;2022-12-29T11:51:43;9.02;;;2.35;;
9597;SDS011;4837;50.890;4.724;2022-12-29T11:54:11;9.43;;;2.22;;
9597;SDS011;4837;50.890;4.724;2022-12-29T11:56:41;7.22;;;2.10;;
9597;SDS011;4837;50.890;4.724;2022-12-29T12:04:42;10.63;;;2.33;;
9597;SDS011;4837;50.890;4.724;2022-12-29T12:09:36;6.80;;;2.10;;
9597;SDS011;4837;50.890;4.724;2022-12-29T12:12:03;8.97;;;2.17;;
9597;SDS011;4837;50.890;4.724;2022-12-29T12:14:36;9.57;;;2.10;;
9597;SDS011;4837;50.890;4.724;2022-12-29T12:17:12;9.60;;;2.13;;
9597;SDS011;4837;50.890;4.724;2022-12-29T12:19:42;8.33;;;2.10;;
9597;SDS011;4837;50.890;4.724;2022-12-29T12:24:49;7.53;;;1.90;;
9597;SDS011;4837;50.890;4.724;2022-12-29T12:29:56;8.97;;;2.33;;
9597;SDS011;4837;50.890;4.724;2022-12-29T12:34:50;7.97;;;1.83;;
9597;SDS011;4837;50.890;4.724;2022-12-29T12:50:41;5.63;;;1.77;;
9597;SDS011;4837;50.890;4.724;2022-12-29T12:55:39;6.30;;;2.07;;
9597;SDS011;4837;50.890;4.724;2022-12-29T12:58:12;10.48;;;2.33;;
9597;SDS011;4837;50.890;4.724;2022-12-29T13:00:45;10.70;;;1.60;;
9597;SDS011;4837;50.890;4.724;2022-12-29T13:03:22;6.03;;;2.43;;
9597;SDS011;4837;50.890;4.724;2022-12-29T13:08:38;5.70;;;1.80;;
9597;SDS011;4837;50.890;4.724;2022-12-29T13:11:21;6.90;;;1.70;;
9597;SDS011;4837;50.890;4.724;2022-12-29T13:21:35;7.73;;;2.10;;
9597;SDS011;4837;50.890;4.724;2022-12-29T13:26:35;6.13;;;1.57;;
9597;SDS011;4837;50.890;4.724;2022-12-29T13:29:17;9.33;;;2.10;;
9597;SDS011;4837;50.890;4.724;2022-12-29T13:36:51;7.53;;;1.80;;
9597;SDS011;4837;50.890;4.724;2022-12-29T13:39:19;8.82;;;2.35;;
9597;SDS011;4837;50.890;4.724;2022-12-29T13:41:50;8.83;;;1.77;;
9597;SDS011;4837;50.890;4.724;2022-12-29T13:44:18;10.33;;;2.13;;
9597;SDS011;4837;50.890;4.724;2022-12-29T13:46:47;8.23;;;1.80;;
9597;SDS011;4837;50.890;4.724;2022-12-29T13:49:15;6.40;;;2.40;;
9597;SDS011;4837;50.890;4.724;2022-12-29T13:51:46;6.18;;;2.03;;
9597;SDS011;4837;50.890;4.724;2022-12-29T13:56:56;9.50;;;2.03;;
9597;SDS011;4837;50.890;4.724;2022-12-29T13:59:29;8.50;;;2.22;;
9597;SDS011;4837;50.890;4.724;2022-12-29T14:02:07;10.03;;;2.17;;
9597;SDS011;4837;50.890;4.724;2022-12-29T14:04:36;8.50;;;2.70;;
9597;SDS011;4837;50.890;4.724;2022-12-29T14:07:20;11.10;;;3.03;;
9597;SDS011;4837;50.890;4.724;2022-12-29T14:09:53;9.15;;;2.78;;
9597;SDS011;4837;50.890;4.724;2022-12-29T14:15:05;8.07;;;2.23;;
9597;SDS011;4837;50.890;4.724;2022-12-29T14:17:32;8.40;;;2.10;;
9597;SDS011;4837;50.890;4.724;2022-12-29T14:19:59;9.70;;;3.13;;
9597;SDS011;4837;50.890;4.724;2022-12-29T14:22:25;9.53;;;2.37;;
9597;SDS011;4837;50.890;4.724;2022-12-29T14:24:52;9.67;;;2.80;;
9597;SDS011;4837;50.890;4.724;2022-12-29T14:29:45;10.00;;;2.90;;
9597;SDS011;4837;50.890;4.724;2022-12-29T14:34:47;10.13;;;2.90;;
9597;SDS011;4837;50.890;4.724;2022-12-29T14:37:33;13.83;;;2.70;;
9597;SDS011;4837;50.890;4.724;2022-12-29T14:42:32;11.40;;;2.60;;
9597;SDS011;4837;50.890;4.724;2022-12-29T14:45:03;6.93;;;2.10;;
9597;SDS011;4837;50.890;4.724;2022-12-29T14:47:40;11.23;;;3.10;;
9597;SDS011;4837;50.890;4.724;2022-12-29T14:57:50;13.70;;;2.70;;
9597;SDS011;4837;50.890;4.724;2022-12-29T15:02:54;11.77;;;3.10;;
9597;SDS011;4837;50.890;4.724;2022-12-29T15:05:33;11.83;;;3.00;;
9597;SDS011;4837;50.890;4.724;2022-12-29T15:08:00;9.33;;;2.17;;
9597;SDS011;4837;50.890;4.724;2022-12-29T15:10:32;9.10;;;2.43;;
9597;SDS011;4837;50.890;4.724;2022-12-29T15:13:02;13.40;;;3.27;;
9597;SDS011;4837;50.890;4.724;2022-12-29T15:15:29;10.43;;;2.97;;
9597;SDS011;4837;50.890;4.724;2022-12-29T15:21:03;12.13;;;2.70;;
9597;SDS011;4837;50.890;4.724;2022-12-29T15:23:31;9.07;;;2.78;;
9597;SDS011;4837;50.890;4.724;2022-12-29T15:25:58;9.43;;;2.47;;
9597;SDS011;4837;50.890;4.724;2022-12-29T15:28:26;10.63;;;2.70;;
9597;SDS011;4837;50.890;4.724;2022-12-29T15:30:54;7.37;;;2.40;;
9597;SDS011;4837;50.890;4.724;2022-12-29T15:33:21;5.57;;;1.90;;
9597;SDS011;4837;50.890;4.724;2022-12-29T15:35:51;7.27;;;1.67;;
9597;SDS011;4837;50.890;4.724;2022-12-29T15:38:27;5.73;;;1.70;;
9597;SDS011;4837;50.890;4.724;2022-12-29T15:40:55;3.60;;;1.60;;
9597;SDS011;4837;50.890;4.724;2022-12-29T15:43:24;4.13;;;1.40;;
9597;SDS011;4837;50.890;4.724;2022-12-29T15:45:52;2.47;;;1.80;;
9597;SDS011;4837;50.890;4.724;2022-12-29T15:48:20;5.33;;;1.73;;
9597;SDS011;4837;50.890;4.724;2022-12-29T15:50:48;6.17;;;2.40;;
9597;SDS011;4837;50.890;4.724;2022-12-29T15:53:21;5.07;;;1.80;;
9597;SDS011;4837;50.890;4.724;2022-12-29T15:55:51;4.07;;;1.97;;
9597;SDS011;4837;50.890;4.724;2022-12-29T15:58:25;7.20;;;2.70;;
9597;SDS011;4837;50.890;4.724;2022-12-29T16:00:58;3.37;;;1.80;;
9597;SDS011;4837;50.890;4.724;2022-12-29T16:03:25;2.77;;;2.10;;
9597;SDS011;4837;50.890;4.724;2022-12-29T16:05:53;9.70;;;4.90;;
9597;SDS011;4837;50.890;4.724;2022-12-29T16:08:36;7.83;;;2.97;;
9597;SDS011;4837;50.890;4.724;2022-12-29T16:11:05;9.33;;;4.53;;
9597;SDS011;4837;50.890;4.724;2022-12-29T16:13:34;8.70;;;4.03;;
9597;SDS011;4837;50.890;4.724;2022-12-29T16:16:24;7.33;;;2.10;;
9597;SDS011;4837;50.890;4.724;2022-12-29T16:18:49;5.70;;;2.37;;
9597;SDS011;4837;50.890;4.724;2022-12-29T16:21:25;7.00;;;2.70;;
9597;SDS011;4837;50.890;4.724;2022-12-29T16:23:53;4.33;;;1.90;;
9597;SDS011;4837;50.890;4.724;2022-12-29T16:26:20;7.53;;;2.37;;
9597;SDS011;4837;50.890;4.724;2022-12-29T16:28:48;7.80;;;2.33;;
9597;SDS011;4837;50.890;4.724;2022-12-29T16:31:23;5.63;;;2.20;;
9597;SDS011;4837;50.890;4.724;2022-12-29T16:33:50;11.37;;;2.30;;
9597;SDS011;4837;50.890;4.724;2022-12-29T16:36:39;11.43;;;2.93;;
9597;SDS011;4837;50.890;4.724;2022-12-29T16:41:52;8.97;;;2.60;;
9597;SDS011;4837;50.890;4.724;2022-12-29T16:44:22;14.10;;;3.77;;
9597;SDS011;4837;50.890;4.724;2022-12-29T16:49:24;12.43;;;2.97;;
9597;SDS011;4837;50.890;4.724;2022-12-29T16:51:51;10.23;;;2.90;;
9597;SDS011;4837;50.890;4.724;2022-12-29T16:54:21;10.90;;;3.07;;
9597;SDS011;4837;50.890;4.724;2022-12-29T16:56:49;12.77;;;3.20;;
9597;SDS011;4837;50.890;4.724;2022-12-29T17:01:54;14.80;;;3.20;;
9597;SDS011;4837;50.890;4.724;2022-12-29T17:04:21;16.63;;;3.30;;
9597;SDS011;4837;50.890;4.724;2022-12-29T17:06:47;13.00;;;2.90;;
9597;SDS011;4837;50.890;4.724;2022-12-29T17:11:43;10.67;;;3.27;;
9597;SDS011;4837;50.890;4.724;2022-12-29T17:14:34;13.27;;;3.23;;
9597;SDS011;4837;50.890;4.724;2022-12-29T17:17:02;11.80;;;2.90;;
9597;SDS011;4837;50.890;4.724;2022-12-29T17:19:30;10.80;;;3.07;;
9597;SDS011;4837;50.890;4.724;2022-12-29T17:21:57;13.73;;;3.10;;
9597;SDS011;4837;50.890;4.724;2022-12-29T17:24:23;10.40;;;3.37;;